createdAt,value
2022-09-15T00:00:44.794Z,85.51
2022-09-15T00:03:48.181Z,85.57
2022-09-15T00:06:51.235Z,85.64
2022-09-15T00:09:54.268Z,84.68
2022-09-15T00:12:57.092Z,84.63
2022-09-15T00:16:00.488Z,84.15
2022-09-15T00:19:04.382Z,84.59
2022-09-15T00:22:07.687Z,85.11
2022-09-15T00:25:11.408Z,84.40
2022-09-15T00:28:15.939Z,84.64
2022-09-15T00:31:21.828Z,84.26
2022-09-15T00:34:25.397Z,83.84
2022-09-15T00:37:28.281Z,84.16
2022-09-15T00:40:31.772Z,85.18
2022-09-15T00:43:47.115Z,85.79
2022-09-15T00:47:09.663Z,85.31
2022-09-15T00:50:18.929Z,85.60
2022-09-15T00:53:23.702Z,86.35
2022-09-15T00:56:27.701Z,88.03
2022-09-15T00:59:32.962Z,89.00
2022-09-15T01:02:37.954Z,88.90
2022-09-15T01:05:51.407Z,88.78
2022-09-15T01:09:02.131Z,89.70
2022-09-15T01:12:06.319Z,89.84
2022-09-15T01:15:09.383Z,89.06
2022-09-15T01:18:22.054Z,88.69
2022-09-15T01:21:45.230Z,89.08
2022-09-15T01:25:23.179Z,89.77
2022-09-15T01:28:53.321Z,90.62
2022-09-15T01:32:24.375Z,91.18
2022-09-15T01:35:48.800Z,91.03
2022-09-15T01:39:02.483Z,92.18
2022-09-15T01:42:09.804Z,92.71
2022-09-15T01:45:25.516Z,93.62
2022-09-15T01:48:30.206Z,95.72
2022-09-15T01:51:35.721Z,95.87
2022-09-15T01:54:51.431Z,96.72
2022-09-15T01:57:57.046Z,97.12
2022-09-15T02:01:47.169Z,96.43
2022-09-15T02:05:02.533Z,96.19
2022-09-15T02:08:29.181Z,95.89
2022-09-15T02:11:36.893Z,96.24
2022-09-15T02:15:05.562Z,95.90
2022-09-15T02:18:14.324Z,96.19
2022-09-15T02:21:24.283Z,96.00
2022-09-15T02:24:50.251Z,95.24
2022-09-15T02:27:57.672Z,95.48
2022-09-15T02:31:04.290Z,94.46
2022-09-15T02:34:18.190Z,95.12
2022-09-15T02:37:23.109Z,94.26
2022-09-15T02:40:28.376Z,95.04
2022-09-15T02:43:31.820Z,95.21
2022-09-15T02:46:39.217Z,94.51
2022-09-15T02:49:42.404Z,93.77
2022-09-15T02:52:46.259Z,95.39
2022-09-15T02:55:49.578Z,95.23
2022-09-15T02:58:52.994Z,94.85
2022-09-15T03:01:58.913Z,95.66
2022-09-15T03:05:01.855Z,95.56
2022-09-15T03:08:05.085Z,95.46
2022-09-15T03:11:31.022Z,94.76
2022-09-15T03:14:35.497Z,95.13
2022-09-15T03:17:44.144Z,95.17
2022-09-15T03:20:47.639Z,95.32
2022-09-15T03:23:50.503Z,94.41
2022-09-15T03:26:53.563Z,95.90
2022-09-15T03:29:56.520Z,96.67
2022-09-15T03:32:59.497Z,95.85
2022-09-15T03:36:03.221Z,95.95
2022-09-15T03:39:06.903Z,96.51
2022-09-15T03:42:10.326Z,96.98
2022-09-15T03:45:13.528Z,96.62
2022-09-15T03:48:16.132Z,96.17
2022-09-15T03:51:19.151Z,96.76
2022-09-15T03:54:22.067Z,96.72
2022-09-15T03:57:25.257Z,97.27
2022-09-15T04:00:28.316Z,97.29
2022-09-15T04:03:31.723Z,97.20
2022-09-15T04:06:35.649Z,97.30
2022-09-15T04:09:38.743Z,97.32
2022-09-15T04:12:44.561Z,97.07
2022-09-15T04:15:48.590Z,97.45
2022-09-15T04:18:55.435Z,98.11
2022-09-15T04:22:00.779Z,97.78
2022-09-15T04:25:04.228Z,97.86
2022-09-15T04:28:07.458Z,97.82
2022-09-15T04:31:13.453Z,95.91
2022-09-15T04:34:16.883Z,95.54
2022-09-15T04:37:21.910Z,95.63
2022-09-15T04:40:45.993Z,95.41
2022-09-15T04:43:50.338Z,96.09
2022-09-15T04:46:54.417Z,95.94
2022-09-15T04:49:57.273Z,96.79
2022-09-15T04:53:00.422Z,96.50
2022-09-15T04:56:07.720Z,96.24
2022-09-15T04:59:22.015Z,96.31
2022-09-15T05:02:25.045Z,96.16
2022-09-15T05:05:30.287Z,96.86
2022-09-15T05:08:33.493Z,97.29
2022-09-15T05:11:40.314Z,96.60
2022-09-15T05:14:45.881Z,96.55
2022-09-15T05:17:51.343Z,95.35
2022-09-15T05:21:01.942Z,95.34
2022-09-15T05:27:39.618Z,92.96
2022-09-15T05:49:04.708Z,99.27
2022-09-15T05:57:11.518Z,99.36
2022-09-15T06:00:15.306Z,98.39
2022-09-15T06:19:20.596Z,94.13
2022-09-15T06:22:28.410Z,93.50
2022-09-15T06:25:33.901Z,92.03
2022-09-15T06:28:38.520Z,93.43
2022-09-15T06:31:44.439Z,94.85
2022-09-15T06:34:47.583Z,95.59
2022-09-15T06:37:51.136Z,95.18
2022-09-15T06:40:58.424Z,95.49
2022-09-15T06:44:04.241Z,94.83
2022-09-15T06:47:07.596Z,94.42
2022-09-15T06:51:00.666Z,93.52
2022-09-15T06:59:18.866Z,94.03
2022-09-15T07:02:41.432Z,91.71
2022-09-15T07:05:46.484Z,91.93
2022-09-15T07:09:13.374Z,90.94
2022-09-15T07:12:16.451Z,90.58
2022-09-15T07:15:21.304Z,88.53
2022-09-15T07:19:06.058Z,88.74
2022-09-15T07:26:30.986Z,90.05
2022-09-15T07:29:37.725Z,89.04
2022-09-15T07:32:41.579Z,86.59
2022-09-15T07:35:45.196Z,82.57
2022-09-15T07:38:50.304Z,75.57
2022-09-15T07:51:11.518Z,72.22
2022-09-15T07:54:19.385Z,67.38
2022-09-15T07:57:24.774Z,71.06
2022-09-15T08:00:28.309Z,71.61
2022-09-15T08:03:31.555Z,73.54
2022-09-15T08:06:34.668Z,72.01
2022-09-15T08:09:58.302Z,71.96
2022-09-15T08:13:01.578Z,69.93
2022-09-15T08:16:12.658Z,68.58
2022-09-15T08:19:15.727Z,68.57
2022-09-15T08:22:19.152Z,67.12
2022-09-15T08:25:22.499Z,63.16
2022-09-15T08:28:26.568Z,63.81
2022-09-15T08:55:49.604Z,54.08
2022-09-15T08:58:56.518Z,54.24
2022-09-15T09:03:33.467Z,51.69
2022-09-15T09:06:49.665Z,49.26
2022-09-15T09:35:34.598Z,43.73
2022-09-15T09:38:43.277Z,44.03
2022-09-15T09:41:47.166Z,43.28
2022-09-15T09:44:50.807Z,41.06
2022-09-15T09:48:01.583Z,41.26
2022-09-15T09:51:49.403Z,41.54
2022-09-15T09:55:09.883Z,42.60
2022-09-15T09:58:22.291Z,41.48
2022-09-15T10:01:26.388Z,42.25
2022-09-15T10:04:31.244Z,40.27
2022-09-15T10:07:40.146Z,42.28
2022-09-15T10:10:52.644Z,42.46
2022-09-15T11:06:03.249Z,41.47
2022-09-15T13:01:00.685Z,52.77
2022-09-15T13:04:05.223Z,55.07
2022-09-15T13:07:17.365Z,56.65
2022-09-15T13:10:31.097Z,56.13
2022-09-15T13:14:08.697Z,57.08
2022-09-15T13:17:18.681Z,59.44
2022-09-15T13:20:51.133Z,66.92
2022-09-15T13:23:56.036Z,80.55
2022-09-15T13:26:59.394Z,86.43
2022-09-15T13:30:09.494Z,85.29
2022-09-15T13:41:15.794Z,87.24
2022-09-15T13:44:53.476Z,83.05
2022-09-15T13:48:07.666Z,83.13
2022-09-15T13:51:25.177Z,86.24
2022-09-15T13:54:28.173Z,82.10
2022-09-15T14:01:15.480Z,83.07
2022-09-15T14:04:28.490Z,85.96
2022-09-15T14:07:32.790Z,81.89
2022-09-15T14:10:54.774Z,81.81
2022-09-15T14:13:59.348Z,87.06
2022-09-15T14:17:03.249Z,92.40
2022-09-15T14:20:38.040Z,88.08
2022-09-15T14:24:20.944Z,88.77
2022-09-15T14:27:50.907Z,92.72
2022-09-15T14:31:00.895Z,95.83
2022-09-15T14:34:07.579Z,97.11
2022-09-15T14:37:47.099Z,100.00
2022-09-15T14:41:05.433Z,95.61
2022-09-15T14:48:02.317Z,92.54
2022-09-15T14:51:17.894Z,95.11
2022-09-15T14:54:27.736Z,90.50
2022-09-15T14:57:36.692Z,92.77
2022-09-15T15:01:08.454Z,92.04
2022-09-15T15:04:33.758Z,97.47
2022-09-15T15:07:37.935Z,99.64
2022-09-15T15:10:41.665Z,100.00
2022-09-15T15:13:49.122Z,100.00
2022-09-15T15:17:08.267Z,100.00
2022-09-15T15:20:10.909Z,100.00
2022-09-15T15:23:24.145Z,100.00
2022-09-15T15:26:29.690Z,100.00
2022-09-15T15:29:40.609Z,100.00
2022-09-15T15:32:49.923Z,100.00
2022-09-15T15:36:06.690Z,100.00
2022-09-15T15:39:24.614Z,100.00
2022-09-15T15:42:29.155Z,100.00
2022-09-15T15:45:58.857Z,100.00
2022-09-15T15:49:06.709Z,100.00
2022-09-15T15:52:10.117Z,100.00
2022-09-15T15:55:35.951Z,100.00
2022-09-15T15:58:39.125Z,100.00
2022-09-15T16:01:43.569Z,100.00
2022-09-15T16:04:46.400Z,100.00
2022-09-15T16:07:51.934Z,100.00
2022-09-15T16:11:01.567Z,100.00
2022-09-15T16:14:04.101Z,100.00
2022-09-15T16:17:08.260Z,100.00
2022-09-15T16:20:11.642Z,100.00
2022-09-15T16:23:17.455Z,100.00
2022-09-15T16:26:23.733Z,100.00
2022-09-15T16:29:29.907Z,100.00
2022-09-15T16:32:32.736Z,100.00
2022-09-15T16:35:43.695Z,100.00
2022-09-15T16:38:46.490Z,100.00
2022-09-15T16:41:49.355Z,100.00
2022-09-15T16:44:51.942Z,100.00
2022-09-15T16:48:01.850Z,100.00
2022-09-15T16:51:28.424Z,100.00
2022-09-15T16:54:33.738Z,100.00
2022-09-15T16:57:36.337Z,100.00
2022-09-15T17:00:41.928Z,100.00
2022-09-15T17:03:44.733Z,100.00
2022-09-15T17:06:48.343Z,100.00
2022-09-15T17:09:51.461Z,100.00
2022-09-15T17:12:54.659Z,100.00
2022-09-15T17:15:57.854Z,100.00
2022-09-15T17:19:01.266Z,100.00
2022-09-15T17:22:04.009Z,100.00
2022-09-15T17:25:30.051Z,100.00
2022-09-15T17:28:36.915Z,100.00
2022-09-15T17:31:39.983Z,100.00
2022-09-15T17:34:42.557Z,100.00
2022-09-15T17:37:46.098Z,100.00
2022-09-15T17:40:53.795Z,100.00
2022-09-15T17:43:57.037Z,100.00
2022-09-15T17:46:59.773Z,100.00
2022-09-15T17:50:03.378Z,100.00
2022-09-15T17:53:12.866Z,100.00
2022-09-15T17:56:16.389Z,100.00
2022-09-15T17:59:22.012Z,100.00
2022-09-15T18:02:27.186Z,100.00
2022-09-15T18:05:33.600Z,100.00
2022-09-15T18:08:36.681Z,100.00
2022-09-15T18:11:40.661Z,100.00
2022-09-15T18:14:43.348Z,100.00
2022-09-15T18:17:53.294Z,100.00
2022-09-15T18:20:58.469Z,100.00
2022-09-15T18:24:10.328Z,100.00
2022-09-15T18:27:13.015Z,100.00
2022-09-15T18:30:20.260Z,100.00
2022-09-15T18:33:26.923Z,100.00
2022-09-15T18:36:31.599Z,100.00
2022-09-15T18:39:35.246Z,100.00
2022-09-15T18:42:41.624Z,100.00
2022-09-15T18:45:44.889Z,100.00
2022-09-15T18:48:48.074Z,100.00
2022-09-15T18:51:51.850Z,100.00
2022-09-15T18:55:02.346Z,100.00
2022-09-15T18:58:05.598Z,100.00
2022-09-15T19:01:11.175Z,100.00
2022-09-15T19:04:38.493Z,100.00
2022-09-15T19:07:47.562Z,100.00
2022-09-15T19:11:00.913Z,100.00
2022-09-15T19:14:08.318Z,100.00
2022-09-15T19:17:12.319Z,100.00
2022-09-15T19:23:39.192Z,100.00
2022-09-15T19:26:47.271Z,100.00
2022-09-15T19:29:50.666Z,100.00
2022-09-15T19:32:53.800Z,100.00
2022-09-15T19:36:17.257Z,100.00
2022-09-15T19:39:24.846Z,100.00
2022-09-15T19:42:27.610Z,100.00
2022-09-15T19:45:30.636Z,100.00
2022-09-15T19:48:38.527Z,100.00
2022-09-15T19:51:43.649Z,100.00
2022-09-15T19:54:48.041Z,100.00
2022-09-15T19:57:51.358Z,100.00
2022-09-15T20:00:56.303Z,100.00
2022-09-15T20:03:59.701Z,100.00
2022-09-15T20:07:02.616Z,100.00
2022-09-15T20:10:07.078Z,100.00
2022-09-15T20:13:10.520Z,100.00
2022-09-15T20:16:21.180Z,100.00
2022-09-15T20:19:24.341Z,100.00
2022-09-15T20:22:28.613Z,100.00
2022-09-15T20:25:33.636Z,100.00
2022-09-15T20:28:36.794Z,100.00
2022-09-15T20:31:41.601Z,100.00
2022-09-15T20:34:45.528Z,100.00
2022-09-15T20:37:56.086Z,100.00
2022-09-15T20:41:01.803Z,100.00
2022-09-15T20:44:09.492Z,100.00
2022-09-15T20:47:13.104Z,100.00
2022-09-15T20:50:17.299Z,100.00
2022-09-15T20:53:20.752Z,100.00
2022-09-15T20:56:25.611Z,100.00
2022-09-15T20:59:28.797Z,100.00
2022-09-15T21:02:31.776Z,100.00
2022-09-15T21:05:34.730Z,100.00
2022-09-15T21:08:37.843Z,100.00
2022-09-15T21:11:43.241Z,100.00
2022-09-15T21:14:45.714Z,100.00
2022-09-15T21:17:48.497Z,100.00
2022-09-15T21:20:58.497Z,100.00
2022-09-15T21:24:08.714Z,100.00
2022-09-15T21:27:26.914Z,100.00
2022-09-15T21:30:30.009Z,100.00
2022-09-15T21:33:33.033Z,100.00
2022-09-15T21:36:35.944Z,100.00
2022-09-15T21:39:38.558Z,100.00
2022-09-15T21:42:42.648Z,100.00
2022-09-15T21:45:45.366Z,100.00
2022-09-15T21:48:49.061Z,100.00
2022-09-15T21:51:51.745Z,100.00
2022-09-15T21:54:54.533Z,100.00
2022-09-15T21:57:57.162Z,100.00
2022-09-15T22:01:10.848Z,100.00
2022-09-15T22:04:13.644Z,100.00
2022-09-15T22:07:17.363Z,100.00
2022-09-15T22:10:22.135Z,100.00
2022-09-15T22:13:24.776Z,100.00
2022-09-15T22:16:30.143Z,100.00
2022-09-15T22:19:32.963Z,100.00
2022-09-15T22:22:35.932Z,100.00
2022-09-15T22:25:38.533Z,100.00
2022-09-15T22:28:41.609Z,100.00
2022-09-15T22:31:44.308Z,100.00
2022-09-15T22:34:47.827Z,100.00
2022-09-15T22:37:50.404Z,100.00
2022-09-15T22:40:53.184Z,100.00
2022-09-15T22:43:55.934Z,100.00
2022-09-15T22:47:00.219Z,100.00
2022-09-15T22:50:02.863Z,100.00
2022-09-15T22:53:06.043Z,100.00
2022-09-15T22:56:12.172Z,100.00
2022-09-15T22:59:15.019Z,100.00
2022-09-15T23:02:17.643Z,100.00
2022-09-15T23:05:20.544Z,100.00
2022-09-15T23:08:23.078Z,100.00
2022-09-15T23:11:27.939Z,100.00
2022-09-15T23:14:30.491Z,100.00
2022-09-15T23:17:34.478Z,100.00
2022-09-15T23:20:39.788Z,100.00
2022-09-15T23:23:44.317Z,100.00
2022-09-15T23:26:46.802Z,100.00
2022-09-15T23:29:49.914Z,100.00
2022-09-15T23:32:52.747Z,100.00
2022-09-15T23:35:55.960Z,100.00
2022-09-15T23:38:58.550Z,100.00
2022-09-15T23:42:02.038Z,100.00
2022-09-15T23:45:05.037Z,100.00
2022-09-15T23:48:10.584Z,100.00
2022-09-15T23:51:13.398Z,100.00
2022-09-15T23:54:16.281Z,100.00
2022-09-15T23:57:19.364Z,100.00
